Time;durP1;ratioP1;P1;durP2;ratioP2;P2;SDS_P1;SDS_P2;PMS_P1;PMS_P2;Temp;Humidity;BMP_temperature;BMP_pressure;BME280_temperature;BME280_humidity;BME280_pressure;Samples;Min_cycle;Max_cycle;Signal;HPM_P1;HPM_P2
2024/01/27 00:02:10;;;;;;;16.35;7.18;;;;;;;;;;5107240;28;20546;-74
2024/01/27 00:04:36;;;;;;;17.85;7.35;;;;;;;;;;5107570;28;20020;-74
2024/01/27 00:07:02;;;;;;;20.50;7.65;;;;;;;;;;5104758;28;20081;-75
2024/01/27 00:09:27;;;;;;;18.67;7.45;;;;;;;;;;5105033;28;20035;-74
2024/01/27 00:11:52;;;;;;;16.30;8.10;;;;;;;;;;5109228;28;20057;-74
2024/01/27 00:14:17;;;;;;;20.85;7.70;;;;;;;;;;5109540;28;20058;-74
2024/01/27 00:16:42;;;;;;;19.57;7.53;;;;;;;;;;5107856;28;20411;-75
2024/01/27 00:19:08;;;;;;;17.93;6.57;;;;;;;;;;5105543;28;20295;-74
2024/01/27 00:21:33;;;;;;;20.40;7.80;;;;;;;;;;5106301;28;20291;-74
2024/01/27 00:24:00;;;;;;;19.35;7.72;;;;;;;;;;5105840;28;20304;-75
2024/01/27 00:26:26;;;;;;;17.08;7.30;;;;;;;;;;5105537;28;20058;-74
2024/01/27 00:28:51;;;;;;;16.95;6.97;;;;;;;;;;5105973;28;20059;-74
2024/01/27 00:31:16;;;;;;;14.60;6.97;;;;;;;;;;5106096;28;20059;-74
2024/01/27 00:33:43;;;;;;;19.27;8.20;;;;;;;;;;5102139;28;20300;-74
2024/01/27 00:36:08;;;;;;;21.80;8.00;;;;;;;;;;5105713;28;20469;-74
2024/01/27 00:38:33;;;;;;;22.02;8.00;;;;;;;;;;5102899;28;20052;-74
2024/01/27 00:40:58;;;;;;;24.17;7.78;;;;;;;;;;5104926;28;20095;-74
2024/01/27 00:43:23;;;;;;;15.30;6.90;;;;;;;;;;5104114;28;20023;-74
2024/01/27 00:45:48;;;;;;;15.50;7.17;;;;;;;;;;5104672;28;20360;-74
2024/01/27 00:48:14;;;;;;;20.23;8.45;;;;;;;;;;5105250;28;20771;-74
2024/01/27 00:50:39;;;;;;;24.83;8.05;;;;;;;;;;5103695;28;20020;-75
2024/01/27 00:53:04;;;;;;;19.23;7.93;;;;;;;;;;5105185;28;20184;-74
2024/01/27 00:55:30;;;;;;;21.27;7.57;;;;;;;;;;5104360;28;20270;-74
2024/01/27 00:57:55;;;;;;;17.90;8.73;;;;;;;;;;5103143;28;20305;-74
2024/01/27 01:00:20;;;;;;;22.70;8.35;;;;;;;;;;5111528;28;20299;-74
2024/01/27 01:02:45;;;;;;;17.55;8.18;;;;;;;;;;5104761;28;20030;-74
2024/01/27 01:05:10;;;;;;;21.23;8.60;;;;;;;;;;5111489;28;20035;-75
2024/01/27 01:07:36;;;;;;;16.83;8.50;;;;;;;;;;5102464;28;20278;-74
2024/01/27 01:10:01;;;;;;;18.63;8.88;;;;;;;;;;5103745;28;20467;-74
2024/01/27 01:12:26;;;;;;;26.67;8.30;;;;;;;;;;5109674;28;20421;-74
2024/01/27 01:14:52;;;;;;;21.85;9.05;;;;;;;;;;5101089;28;20467;-74
2024/01/27 01:17:17;;;;;;;19.15;8.32;;;;;;;;;;5111933;28;20022;-74
2024/01/27 01:19:43;;;;;;;23.10;9.15;;;;;;;;;;5105292;28;20021;-74
2024/01/27 01:22:08;;;;;;;22.67;8.68;;;;;;;;;;5109374;28;20020;-74
2024/01/27 01:24:33;;;;;;;16.90;8.70;;;;;;;;;;5099437;28;20020;-74
2024/01/27 01:26:59;;;;;;;24.20;8.90;;;;;;;;;;5101204;28;20020;-74
2024/01/27 01:29:24;;;;;;;23.73;10.27;;;;;;;;;;5107873;28;20042;-74
2024/01/27 01:31:49;;;;;;;27.53;10.10;;;;;;;;;;5110660;28;20020;-74
2024/01/27 01:34:14;;;;;;;23.40;9.40;;;;;;;;;;5110211;28;20709;-75
2024/01/27 01:36:40;;;;;;;23.15;9.18;;;;;;;;;;5104427;28;20303;-74
2024/01/27 01:39:06;;;;;;;23.30;9.02;;;;;;;;;;5104472;28;20027;-75
2024/01/27 01:41:31;;;;;;;20.20;8.77;;;;;;;;;;5104462;28;20023;-74
2024/01/27 01:43:56;;;;;;;24.63;9.53;;;;;;;;;;5101834;28;20471;-74
2024/01/27 01:46:23;;;;;;;22.02;8.95;;;;;;;;;;5104731;28;20277;-75
2024/01/27 01:48:49;;;;;;;19.02;8.93;;;;;;;;;;5101301;28;20020;-74
2024/01/27 01:51:14;;;;;;;24.35;9.35;;;;;;;;;;5105647;28;20370;-75
2024/01/27 01:53:39;;;;;;;20.35;10.45;;;;;;;;;;5102287;28;20031;-74
2024/01/27 01:56:05;;;;;;;19.70;8.27;;;;;;;;;;5104316;28;20379;-74
2024/01/27 01:58:34;;;;;;;28.88;9.40;;;;;;;;;;5103393;28;20052;-74
2024/01/27 02:01:02;;;;;;;24.25;8.80;;;;;;;;;;5102799;28;20030;-74
2024/01/27 02:03:27;;;;;;;23.27;8.88;;;;;;;;;;5104696;28;20031;-74
2024/01/27 02:05:52;;;;;;;25.75;9.70;;;;;;;;;;5101362;28;20038;-74
2024/01/27 02:08:18;;;;;;;22.27;9.33;;;;;;;;;;5104394;28;20134;-75
2024/01/27 02:10:43;;;;;;;20.02;9.35;;;;;;;;;;5104046;28;20257;-74
2024/01/27 02:13:18;;;;;;;19.55;9.05;;;;;;;;;;5103828;28;20122;-74
2024/01/27 02:15:43;;;;;;;27.67;9.57;;;;;;;;;;5103668;28;20466;-75
2024/01/27 02:18:08;;;;;;;19.17;9.37;;;;;;;;;;5103212;28;20028;-74
2024/01/27 02:20:33;;;;;;;28.23;11.07;;;;;;;;;;5104147;28;20273;-74
2024/01/27 02:22:58;;;;;;;18.88;10.15;;;;;;;;;;5102209;28;20760;-74
2024/01/27 02:25:23;;;;;;;24.67;10.00;;;;;;;;;;5102080;28;20024;-74
2024/01/27 02:27:49;;;;;;;22.30;8.90;;;;;;;;;;5111219;28;20282;-74
2024/01/27 02:30:14;;;;;;;20.13;9.82;;;;;;;;;;5098674;28;20349;-74
2024/01/27 02:32:39;;;;;;;25.27;9.77;;;;;;;;;;5103086;28;20115;-75
2024/01/27 02:35:05;;;;;;;25.73;10.82;;;;;;;;;;5103260;28;20274;-75
2024/01/27 02:37:30;;;;;;;20.73;9.70;;;;;;;;;;5104051;28;20016;-74
2024/01/27 02:39:55;;;;;;;20.60;9.87;;;;;;;;;;5099465;28;20047;-74
2024/01/27 02:42:20;;;;;;;22.55;9.55;;;;;;;;;;5105556;28;20352;-75
2024/01/27 02:44:45;;;;;;;22.67;10.00;;;;;;;;;;5102841;28;20016;-74
2024/01/27 02:47:11;;;;;;;25.40;10.37;;;;;;;;;;5103398;28;20466;-75
2024/01/27 02:49:36;;;;;;;19.08;10.65;;;;;;;;;;5101739;28;20297;-75
2024/01/27 02:52:01;;;;;;;20.55;10.30;;;;;;;;;;5103575;28;20066;-74
2024/01/27 02:54:27;;;;;;;32.50;11.10;;;;;;;;;;5106742;28;20059;-74
2024/01/27 02:56:52;;;;;;;22.17;10.10;;;;;;;;;;5102688;28;20020;-74
2024/01/27 02:59:19;;;;;;;26.92;10.23;;;;;;;;;;5105948;28;20097;-74
2024/01/27 03:01:44;;;;;;;25.60;10.70;;;;;;;;;;5108960;28;20391;-74
2024/01/27 03:04:09;;;;;;;24.88;11.15;;;;;;;;;;5112037;28;20031;-74
2024/01/27 03:06:34;;;;;;;20.57;10.33;;;;;;;;;;5104416;28;20020;-75
2024/01/27 03:08:59;;;;;;;22.93;10.00;;;;;;;;;;5110305;28;20322;-74
2024/01/27 03:11:25;;;;;;;21.38;10.38;;;;;;;;;;5106825;28;20269;-74
2024/01/27 03:13:50;;;;;;;20.65;10.40;;;;;;;;;;5110469;28;20539;-74
2024/01/27 03:16:17;;;;;;;19.10;9.83;;;;;;;;;;5109812;28;20019;-75
2024/01/27 03:18:42;;;;;;;20.13;9.63;;;;;;;;;;5108550;28;20293;-74
2024/01/27 03:21:08;;;;;;;20.30;10.00;;;;;;;;;;5106675;28;20463;-74
2024/01/27 03:23:33;;;;;;;24.13;10.60;;;;;;;;;;5106777;28;20289;-74
2024/01/27 03:25:58;;;;;;;19.27;10.13;;;;;;;;;;5106996;28;20023;-74
2024/01/27 03:28:23;;;;;;;23.80;10.10;;;;;;;;;;5107350;28;20028;-74
2024/01/27 03:30:49;;;;;;;28.93;11.30;;;;;;;;;;5114472;28;20262;-74
2024/01/27 03:33:14;;;;;;;25.80;11.87;;;;;;;;;;5108376;28;20871;-75
2024/01/27 03:35:39;;;;;;;26.55;9.88;;;;;;;;;;5107652;28;20270;-74
2024/01/27 03:38:05;;;;;;;23.27;10.68;;;;;;;;;;5113329;28;20023;-74
2024/01/27 03:40:30;;;;;;;23.63;10.90;;;;;;;;;;5109824;28;20028;-74
2024/01/27 03:42:55;;;;;;;22.95;10.27;;;;;;;;;;5104794;28;20020;-74
2024/01/27 03:45:21;;;;;;;23.43;10.07;;;;;;;;;;5107005;28;20400;-74
2024/01/27 03:47:46;;;;;;;24.57;10.80;;;;;;;;;;5112199;28;20281;-75
2024/01/27 03:50:11;;;;;;;22.10;10.02;;;;;;;;;;5106059;28;20797;-74
2024/01/27 03:52:36;;;;;;;21.85;10.38;;;;;;;;;;5107151;28;20036;-74
2024/01/27 03:55:01;;;;;;;24.80;10.27;;;;;;;;;;5106185;28;20015;-75
2024/01/27 03:57:27;;;;;;;24.45;10.05;;;;;;;;;;5106214;28;20022;-75
2024/01/27 03:59:52;;;;;;;21.70;10.30;;;;;;;;;;5104765;28;20044;-74
2024/01/27 04:02:17;;;;;;;26.77;11.83;;;;;;;;;;5106316;28;20748;-75
2024/01/27 04:04:42;;;;;;;27.08;10.73;;;;;;;;;;5105866;28;20365;-75
2024/01/27 04:07:07;;;;;;;24.67;10.90;;;;;;;;;;5105430;28;20039;-74
2024/01/27 04:09:33;;;;;;;26.07;11.00;;;;;;;;;;5111643;28;20043;-74
2024/01/27 04:11:58;;;;;;;24.60;11.68;;;;;;;;;;5104664;28;20262;-74
2024/01/27 04:14:23;;;;;;;26.33;11.23;;;;;;;;;;5111611;28;20103;-75
2024/01/27 04:16:48;;;;;;;18.95;11.15;;;;;;;;;;5104170;28;20253;-74
2024/01/27 04:19:13;;;;;;;27.45;11.57;;;;;;;;;;5105082;28;20111;-75
2024/01/27 04:21:39;;;;;;;26.48;11.27;;;;;;;;;;5105969;28;20072;-75
2024/01/27 04:24:04;;;;;;;24.33;12.20;;;;;;;;;;5104633;28;20129;-75
2024/01/27 04:26:29;;;;;;;22.58;10.90;;;;;;;;;;5101721;28;21133;-75
2024/01/27 04:28:55;;;;;;;29.45;11.35;;;;;;;;;;5104120;28;20135;-75
2024/01/27 04:31:20;;;;;;;24.15;11.52;;;;;;;;;;5104023;28;20108;-75
2024/01/27 04:33:45;;;;;;;26.17;11.03;;;;;;;;;;5104806;28;20115;-75
2024/01/27 04:36:10;;;;;;;23.27;11.55;;;;;;;;;;5103153;28;20293;-75
2024/01/27 04:38:36;;;;;;;21.85;11.00;;;;;;;;;;5104050;28;20059;-74
2024/01/27 04:41:02;;;;;;;21.33;11.00;;;;;;;;;;5102508;28;20455;-75
2024/01/27 04:43:27;;;;;;;25.77;11.82;;;;;;;;;;5109166;28;20098;-75
2024/01/27 04:45:52;;;;;;;21.57;11.23;;;;;;;;;;5101300;28;20448;-75
2024/01/27 04:48:17;;;;;;;26.20;11.27;;;;;;;;;;5108900;28;20288;-75
2024/01/27 04:50:43;;;;;;;24.58;11.60;;;;;;;;;;5102321;28;20266;-75
2024/01/27 04:53:08;;;;;;;22.77;11.02;;;;;;;;;;5106165;28;20042;-75
2024/01/27 04:55:33;;;;;;;22.20;12.03;;;;;;;;;;5105258;28;20018;-75
2024/01/27 04:57:58;;;;;;;20.83;11.33;;;;;;;;;;5104665;28;20273;-75
2024/01/27 05:00:26;;;;;;;25.63;12.45;;;;;;;;;;5108030;28;20350;-74
2024/01/27 05:02:51;;;;;;;24.73;11.90;;;;;;;;;;5104726;28;20016;-75
2024/01/27 05:05:16;;;;;;;25.33;12.57;;;;;;;;;;5105233;28;20417;-75
2024/01/27 05:07:41;;;;;;;25.63;12.73;;;;;;;;;;5107077;28;20356;-75
2024/01/27 05:10:10;;;;;;;24.17;12.80;;;;;;;;;;5108385;28;20043;-75
2024/01/27 05:12:35;;;;;;;24.45;12.27;;;;;;;;;;5107036;28;20300;-75
2024/01/27 05:15:00;;;;;;;22.17;13.20;;;;;;;;;;5103017;28;20024;-74
2024/01/27 05:17:25;;;;;;;24.85;12.73;;;;;;;;;;5105071;28;20621;-75
2024/01/27 05:19:51;;;;;;;32.70;13.98;;;;;;;;;;5108544;28;20023;-75
2024/01/27 05:22:16;;;;;;;26.13;14.70;;;;;;;;;;5104251;28;20027;-75
2024/01/27 05:24:42;;;;;;;31.65;14.02;;;;;;;;;;5105696;28;20027;-74
2024/01/27 05:27:07;;;;;;;24.53;13.63;;;;;;;;;;5102799;28;20113;-75
2024/01/27 05:29:32;;;;;;;23.53;13.93;;;;;;;;;;5107816;28;20285;-75
2024/01/27 05:31:58;;;;;;;30.98;14.57;;;;;;;;;;5101161;28;20277;-74
2024/01/27 05:34:23;;;;;;;25.33;13.85;;;;;;;;;;5109772;28;20110;-74
2024/01/27 05:36:48;;;;;;;28.03;15.43;;;;;;;;;;5098586;28;20042;-74
2024/01/27 05:39:14;;;;;;;28.63;15.10;;;;;;;;;;5102429;28;20301;-75
2024/01/27 05:41:39;;;;;;;29.40;15.82;;;;;;;;;;5103780;28;20319;-74
2024/01/27 05:44:04;;;;;;;26.15;14.32;;;;;;;;;;5103906;28;20057;-74
2024/01/27 05:46:29;;;;;;;28.23;15.18;;;;;;;;;;5103346;28;20371;-74
2024/01/27 05:48:57;;;;;;;31.80;15.45;;;;;;;;;;5105160;28;20022;-74
2024/01/27 05:51:23;;;;;;;28.13;15.35;;;;;;;;;;5101302;28;20024;-74
2024/01/27 05:53:48;;;;;;;28.33;15.45;;;;;;;;;;5107600;28;20525;-74
2024/01/27 05:56:13;;;;;;;22.73;15.65;;;;;;;;;;5101908;28;20023;-74
2024/01/27 05:58:38;;;;;;;30.33;15.82;;;;;;;;;;5108342;28;20039;-75
2024/01/27 06:01:03;;;;;;;23.03;14.60;;;;;;;;;;5100964;28;20016;-74
2024/01/27 06:03:29;;;;;;;31.20;15.43;;;;;;;;;;5106982;28;20313;-75
2024/01/27 06:05:54;;;;;;;29.73;15.68;;;;;;;;;;5101342;28;20269;-75
2024/01/27 06:08:19;;;;;;;27.55;15.57;;;;;;;;;;5105522;28;20042;-75
2024/01/27 06:10:45;;;;;;;25.48;15.55;;;;;;;;;;5105546;28;20050;-74
2024/01/27 06:13:10;;;;;;;38.58;16.55;;;;;;;;;;5104883;28;20069;-74
2024/01/27 06:15:35;;;;;;;32.43;15.50;;;;;;;;;;5104471;28;20012;-75
2024/01/27 06:18:00;;;;;;;33.00;16.03;;;;;;;;;;5102014;28;20272;-74
2024/01/27 06:20:26;;;;;;;34.80;15.60;;;;;;;;;;5104274;28;20766;-74
2024/01/27 06:22:52;;;;;;;31.23;15.15;;;;;;;;;;5103433;28;20288;-75
2024/01/27 06:25:17;;;;;;;29.90;16.30;;;;;;;;;;5107889;28;20023;-74
2024/01/27 06:27:42;;;;;;;29.75;16.20;;;;;;;;;;5103541;28;20030;-74
2024/01/27 06:30:09;;;;;;;29.58;15.73;;;;;;;;;;5107161;28;20027;-74
2024/01/27 06:32:34;;;;;;;28.10;15.82;;;;;;;;;;5103214;28;20531;-75
2024/01/27 06:34:59;;;;;;;36.33;15.70;;;;;;;;;;5110468;28;20015;-75
2024/01/27 06:37:25;;;;;;;31.60;15.33;;;;;;;;;;5105434;28;20277;-74
2024/01/27 06:39:50;;;;;;;32.33;17.10;;;;;;;;;;5107438;28;20354;-75
2024/01/27 06:42:15;;;;;;;31.47;16.43;;;;;;;;;;5105929;28;20278;-74
2024/01/27 06:44:40;;;;;;;31.20;15.57;;;;;;;;;;5108230;28;20289;-74
2024/01/27 06:47:05;;;;;;;31.73;16.67;;;;;;;;;;5113982;28;20285;-75
2024/01/27 06:49:31;;;;;;;34.42;15.93;;;;;;;;;;5109434;28;20518;-75
2024/01/27 06:51:56;;;;;;;29.42;16.40;;;;;;;;;;5108480;28;20019;-75
2024/01/27 06:54:21;;;;;;;39.07;16.93;;;;;;;;;;5109715;28;20023;-75
2024/01/27 06:56:46;;;;;;;35.27;16.63;;;;;;;;;;5108951;28;20925;-74
2024/01/27 06:59:12;;;;;;;37.70;16.70;;;;;;;;;;5108041;28;20290;-74
2024/01/27 07:01:37;;;;;;;35.28;16.25;;;;;;;;;;5105363;28;20764;-75
2024/01/27 07:04:02;;;;;;;35.83;17.60;;;;;;;;;;5110824;28;20093;-74
2024/01/27 07:06:27;;;;;;;31.48;15.60;;;;;;;;;;5106354;28;20503;-74
2024/01/27 07:08:52;;;;;;;33.53;17.00;;;;;;;;;;5112814;28;20030;-74
2024/01/27 07:11:17;;;;;;;35.90;16.65;;;;;;;;;;5110452;28;20314;-75
2024/01/27 07:13:43;;;;;;;42.17;17.35;;;;;;;;;;5113653;28;20119;-74
2024/01/27 07:16:08;;;;;;;30.10;16.13;;;;;;;;;;5110421;28;20056;-75
2024/01/27 07:18:34;;;;;;;34.93;17.40;;;;;;;;;;5109499;28;20287;-74
2024/01/27 07:21:01;;;;;;;29.50;15.93;;;;;;;;;;5105290;28;20817;-74
2024/01/27 07:23:26;;;;;;;37.55;17.33;;;;;;;;;;5107527;28;20028;-74
2024/01/27 07:25:51;;;;;;;31.43;16.93;;;;;;;;;;5112174;28;20102;-74
2024/01/27 07:28:18;;;;;;;31.37;17.03;;;;;;;;;;5104265;28;20274;-74
2024/01/27 07:30:43;;;;;;;33.30;17.23;;;;;;;;;;5106902;28;20266;-75
2024/01/27 07:33:08;;;;;;;35.20;16.90;;;;;;;;;;5112269;28;20028;-74
2024/01/27 07:35:34;;;;;;;38.78;17.05;;;;;;;;;;5111074;28;20412;-74
2024/01/27 07:37:59;;;;;;;37.50;16.52;;;;;;;;;;5113301;28;20027;-74
2024/01/27 07:40:25;;;;;;;35.97;17.33;;;;;;;;;;5105389;28;20023;-74
2024/01/27 07:42:50;;;;;;;39.15;17.10;;;;;;;;;;5106108;28;20276;-74
2024/01/27 07:45:15;;;;;;;36.87;17.00;;;;;;;;;;5109232;28;20020;-73
2024/01/27 07:47:40;;;;;;;39.13;18.33;;;;;;;;;;5106663;28;20305;-74
2024/01/27 07:50:06;;;;;;;35.15;17.02;;;;;;;;;;5110120;28;20373;-74
2024/01/27 07:52:31;;;;;;;37.42;17.20;;;;;;;;;;5111565;28;20044;-74
2024/01/27 07:54:56;;;;;;;43.63;17.80;;;;;;;;;;5111747;28;20077;-74
2024/01/27 07:57:22;;;;;;;39.67;17.67;;;;;;;;;;5106110;28;20031;-74
2024/01/27 07:59:47;;;;;;;37.58;16.30;;;;;;;;;;5105308;28;20796;-74
2024/01/27 08:02:12;;;;;;;42.50;16.93;;;;;;;;;;5106424;28;20019;-75
2024/01/27 08:04:38;;;;;;;42.40;16.85;;;;;;;;;;5104345;28;20281;-74
2024/01/27 08:07:09;;;;;;;48.70;17.73;;;;;;;;;;5106360;28;20383;-74
2024/01/27 08:09:34;;;;;;;30.42;16.90;;;;;;;;;;5105415;27;20013;-74
2024/01/27 08:12:01;;;;;;;34.33;17.30;;;;;;;;;;5108014;28;20115;-74
2024/01/27 08:14:29;;;;;;;39.75;16.80;;;;;;;;;;5107529;28;20765;-74
2024/01/27 08:16:55;;;;;;;36.80;17.80;;;;;;;;;;5103391;28;20024;-74
2024/01/27 08:19:20;;;;;;;47.45;18.55;;;;;;;;;;5109481;28;20467;-74
2024/01/27 08:21:46;;;;;;;39.60;17.23;;;;;;;;;;5102375;28;20032;-74
2024/01/27 08:24:11;;;;;;;42.05;17.52;;;;;;;;;;5110066;28;20065;-74
2024/01/27 08:26:36;;;;;;;43.30;17.47;;;;;;;;;;5102699;28;20016;-74
2024/01/27 08:29:02;;;;;;;40.33;17.37;;;;;;;;;;5110897;28;20360;-74
2024/01/27 08:31:27;;;;;;;42.00;17.17;;;;;;;;;;5101955;28;20319;-74
2024/01/27 08:33:52;;;;;;;44.77;17.87;;;;;;;;;;5109256;28;20046;-74
2024/01/27 08:36:17;;;;;;;51.13;18.25;;;;;;;;;;5098072;28;20828;-74
2024/01/27 08:38:42;;;;;;;44.80;18.70;;;;;;;;;;5106802;28;20111;-74
2024/01/27 08:41:08;;;;;;;41.78;17.60;;;;;;;;;;5103009;28;20270;-74
2024/01/27 08:43:33;;;;;;;34.05;17.33;;;;;;;;;;5109238;28;20012;-74
2024/01/27 08:46:00;;;;;;;40.87;16.87;;;;;;;;;;5101389;28;20043;-74
2024/01/27 08:48:25;;;;;;;38.22;17.75;;;;;;;;;;5109430;28;20261;-74
2024/01/27 08:50:50;;;;;;;41.95;18.23;;;;;;;;;;5106267;28;20035;-74
2024/01/27 08:53:15;;;;;;;37.60;17.30;;;;;;;;;;5108001;28;20059;-74
2024/01/27 08:55:41;;;;;;;42.70;18.45;;;;;;;;;;5103126;28;20262;-74
2024/01/27 08:58:06;;;;;;;47.40;19.05;;;;;;;;;;5106223;28;20047;-74
2024/01/27 09:00:31;;;;;;;37.43;17.57;;;;;;;;;;5104253;28;20050;-74
2024/01/27 09:02:57;;;;;;;40.90;18.07;;;;;;;;;;5104498;28;20356;-74
2024/01/27 09:05:22;;;;;;;44.15;18.63;;;;;;;;;;5105129;28;20622;-74
2024/01/27 09:07:48;;;;;;;41.72;19.83;;;;;;;;;;5103228;28;20023;-74
2024/01/27 09:10:15;;;;;;;39.23;18.00;;;;;;;;;;5105347;28;20451;-74
2024/01/27 09:12:40;;;;;;;49.05;18.90;;;;;;;;;;5105868;28;20393;-74
2024/01/27 09:15:07;;;;;;;41.67;19.33;;;;;;;;;;5101354;28;20043;-74
2024/01/27 09:17:32;;;;;;;48.10;20.05;;;;;;;;;;5105143;28;20512;-74
2024/01/27 09:19:57;;;;;;;49.75;19.50;;;;;;;;;;5103346;28;20012;-74
2024/01/27 09:22:23;;;;;;;37.67;19.25;;;;;;;;;;5105138;28;20015;-74
2024/01/27 09:24:48;;;;;;;48.35;19.13;;;;;;;;;;5105099;28;20110;-74
2024/01/27 09:27:13;;;;;;;43.93;19.73;;;;;;;;;;5103541;28;20012;-74
2024/01/27 09:29:38;;;;;;;48.97;19.25;;;;;;;;;;5107296;28;20753;-74
2024/01/27 09:32:04;;;;;;;46.33;18.60;;;;;;;;;;5101622;28;20018;-74
2024/01/27 09:34:29;;;;;;;48.88;19.85;;;;;;;;;;5109001;28;20098;-74
2024/01/27 09:36:55;;;;;;;40.50;18.10;;;;;;;;;;5100488;28;20027;-74
2024/01/27 09:39:20;;;;;;;39.73;18.07;;;;;;;;;;5103104;28;20416;-74
2024/01/27 09:41:48;;;;;;;37.35;18.58;;;;;;;;;;5103823;28;20273;-74
2024/01/27 09:44:13;;;;;;;41.17;18.30;;;;;;;;;;5102986;28;20024;-74
2024/01/27 09:46:39;;;;;;;33.88;16.75;;;;;;;;;;5104999;28;20035;-74
2024/01/27 09:49:05;;;;;;;35.15;17.15;;;;;;;;;;5103915;28;20539;-74
2024/01/27 09:51:30;;;;;;;43.13;17.83;;;;;;;;;;5102880;28;20073;-74
2024/01/27 09:53:56;;;;;;;42.65;17.08;;;;;;;;;;5106707;28;20020;-74
2024/01/27 09:56:22;;;;;;;42.65;18.45;;;;;;;;;;5100395;28;20024;-74
2024/01/27 09:58:49;;;;;;;38.33;17.35;;;;;;;;;;5108215;28;20055;-74
2024/01/27 10:01:16;;;;;;;34.47;16.75;;;;;;;;;;5101288;28;20027;-74
2024/01/27 10:03:43;;;;;;;44.28;17.98;;;;;;;;;;5107408;28;20059;-74
2024/01/27 10:06:08;;;;;;;35.08;16.67;;;;;;;;;;5100908;28;20549;-74
2024/01/27 10:08:34;;;;;;;41.20;17.05;;;;;;;;;;5108581;28;20104;-74
2024/01/27 10:10:59;;;;;;;39.30;16.65;;;;;;;;;;5101662;28;20011;-74
2024/01/27 10:13:27;;;;;;;34.35;15.27;;;;;;;;;;5106621;28;20067;-74
2024/01/27 10:16:08;;;;;;;34.08;14.73;;;;;;;;;;5102602;28;20360;-74
2024/01/27 10:18:34;;;;;;;28.50;14.77;;;;;;;;;;5107167;28;20031;-74
2024/01/27 10:20:59;;;;;;;39.03;14.10;;;;;;;;;;5102480;28;20028;-74
2024/01/27 10:23:24;;;;;;;35.20;15.07;;;;;;;;;;5104708;28;20019;-74
2024/01/27 10:25:50;;;;;;;33.88;14.48;;;;;;;;;;5103962;28;20027;-74
2024/01/27 10:28:15;;;;;;;31.35;14.25;;;;;;;;;;5103669;28;20023;-74
2024/01/27 10:30:40;;;;;;;28.20;12.93;;;;;;;;;;5103608;28;20022;-74
2024/01/27 10:33:10;;;;;;;34.08;13.57;;;;;;;;;;5103389;28;20059;-74
2024/01/27 10:35:35;;;;;;;31.45;12.95;;;;;;;;;;5100770;28;20043;-74
2024/01/27 10:38:00;;;;;;;31.90;12.97;;;;;;;;;;5106325;28;20055;-74
2024/01/27 10:40:28;;;;;;;34.60;11.70;;;;;;;;;;5101147;28;20284;-74
2024/01/27 10:42:59;;;;;;;31.85;12.52;;;;;;;;;;5105184;28;20016;-74
2024/01/27 10:45:25;;;;;;;32.83;12.20;;;;;;;;;;5101273;28;20024;-74
2024/01/27 10:47:50;;;;;;;23.20;11.35;;;;;;;;;;5104497;28;20515;-74
2024/01/27 10:50:15;;;;;;;27.65;11.38;;;;;;;;;;5104193;28;20028;-74
2024/01/27 10:52:42;;;;;;;32.22;11.18;;;;;;;;;;5102072;28;20387;-74
2024/01/27 10:55:10;;;;;;;24.70;10.77;;;;;;;;;;5104192;28;20036;-74
2024/01/27 10:57:36;;;;;;;26.13;10.00;;;;;;;;;;5102532;28;20107;-74
2024/01/27 11:00:03;;;;;;;28.02;10.90;;;;;;;;;;5102545;28;20097;-74
2024/01/27 11:02:32;;;;;;;23.70;10.13;;;;;;;;;;5103053;28;20026;-74
2024/01/27 11:04:58;;;;;;;27.25;8.98;;;;;;;;;;5100492;28;20131;-74
2024/01/27 11:07:24;;;;;;;26.02;9.30;;;;;;;;;;5102880;28;20099;-74
2024/01/27 11:09:52;;;;;;;25.33;9.80;;;;;;;;;;5102490;28;20020;-74
2024/01/27 11:12:21;;;;;;;20.83;9.13;;;;;;;;;;5105397;28;20018;-74
2024/01/27 11:14:51;;;;;;;25.60;8.85;;;;;;;;;;5102927;28;20024;-74
2024/01/27 11:17:16;;;;;;;21.25;8.40;;;;;;;;;;5103663;28;20462;-74
2024/01/27 11:19:42;;;;;;;19.85;8.20;;;;;;;;;;5102878;28;20032;-74
2024/01/27 11:22:07;;;;;;;14.60;7.60;;;;;;;;;;5105699;28;20020;-74
2024/01/27 11:24:32;;;;;;;20.77;7.55;;;;;;;;;;5110001;28;20008;-74
2024/01/27 11:27:04;;;;;;;14.50;6.97;;;;;;;;;;5103409;28;20032;-74
2024/01/27 11:29:34;;;;;;;19.67;8.00;;;;;;;;;;5111417;28;20024;-74
2024/01/27 11:32:00;;;;;;;17.85;7.47;;;;;;;;;;5104168;28;20039;-74
2024/01/27 11:34:25;;;;;;;18.83;7.38;;;;;;;;;;5106477;28;20043;-74
2024/01/27 11:36:51;;;;;;;17.57;6.50;;;;;;;;;;5105434;28;20019;-74
2024/01/27 11:39:29;;;;;;;16.73;6.93;;;;;;;;;;5105607;28;20301;-74
2024/01/27 11:42:12;;;;;;;14.10;7.13;;;;;;;;;;5106087;28;20780;-74
2024/01/27 11:44:38;;;;;;;16.77;7.22;;;;;;;;;;5103617;28;20081;-74
2024/01/27 11:47:04;;;;;;;17.42;7.57;;;;;;;;;;5107034;28;20462;-74
2024/01/27 11:49:29;;;;;;;14.80;6.25;;;;;;;;;;5104766;28;20471;-74
2024/01/27 11:51:55;;;;;;;19.98;7.32;;;;;;;;;;5106564;28;20023;-74
2024/01/27 11:54:20;;;;;;;22.83;7.47;;;;;;;;;;5105843;28;20498;-74
2024/01/27 11:56:46;;;;;;;17.30;6.45;;;;;;;;;;5105877;28;20027;-74
2024/01/27 11:59:11;;;;;;;19.55;7.30;;;;;;;;;;5107760;27;20048;-74
2024/01/27 12:01:36;;;;;;;13.60;6.33;;;;;;;;;;5104272;28;20131;-74
2024/01/27 12:04:02;;;;;;;20.58;7.00;;;;;;;;;;5109684;28;20262;-74
2024/01/27 12:06:28;;;;;;;16.40;6.28;;;;;;;;;;5103402;28;20016;-74
2024/01/27 12:08:55;;;;;;;22.17;6.38;;;;;;;;;;5110395;28;21312;-74
2024/01/27 12:11:21;;;;;;;19.45;6.10;;;;;;;;;;5105673;28;20016;-74
2024/01/27 12:13:46;;;;;;;13.13;5.90;;;;;;;;;;5111271;28;20054;-74
2024/01/27 12:16:12;;;;;;;13.43;6.10;;;;;;;;;;5102208;28;20020;-74
2024/01/27 12:18:37;;;;;;;20.52;6.35;;;;;;;;;;5110578;28;20019;-75
2024/01/27 12:21:02;;;;;;;19.45;6.78;;;;;;;;;;5103773;28;20027;-74
2024/01/27 12:23:27;;;;;;;13.63;6.22;;;;;;;;;;5107791;28;20072;-74
2024/01/27 12:25:54;;;;;;;16.30;5.80;;;;;;;;;;5105941;28;20451;-75
2024/01/27 12:28:20;;;;;;;17.02;6.38;;;;;;;;;;5102910;28;20035;-74
2024/01/27 12:30:45;;;;;;;17.88;5.53;;;;;;;;;;5105838;28;20011;-74
2024/01/27 12:33:12;;;;;;;18.13;5.60;;;;;;;;;;5103556;28;20057;-74
2024/01/27 12:35:37;;;;;;;16.65;5.57;;;;;;;;;;5101527;28;20372;-74
2024/01/27 12:38:02;;;;;;;17.47;4.77;;;;;;;;;;5101414;28;20475;-74
2024/01/27 12:40:28;;;;;;;15.93;5.88;;;;;;;;;;5102737;28;20263;-74
2024/01/27 12:42:53;;;;;;;12.38;5.93;;;;;;;;;;5107266;28;20055;-75
2024/01/27 12:45:18;;;;;;;16.27;5.80;;;;;;;;;;5104393;28;20032;-74
2024/01/27 12:47:44;;;;;;;13.37;5.03;;;;;;;;;;5105318;28;20070;-74
2024/01/27 12:50:09;;;;;;;19.63;5.47;;;;;;;;;;5105794;28;20276;-75
2024/01/27 12:52:34;;;;;;;16.03;5.73;;;;;;;;;;5103582;28;20016;-75
2024/01/27 12:54:59;;;;;;;17.10;5.77;;;;;;;;;;5105511;28;20277;-74
2024/01/27 12:57:24;;;;;;;14.32;4.82;;;;;;;;;;5104728;28;20262;-75
2024/01/27 12:59:50;;;;;;;15.47;5.67;;;;;;;;;;5104446;28;20123;-75
2024/01/27 13:02:15;;;;;;;13.32;5.28;;;;;;;;;;5105609;28;20281;-75
2024/01/27 13:04:40;;;;;;;18.50;4.82;;;;;;;;;;5104928;28;20031;-75
2024/01/27 13:07:06;;;;;;;18.67;5.18;;;;;;;;;;5104354;28;20090;-75
2024/01/27 13:09:31;;;;;;;17.13;5.70;;;;;;;;;;5105242;28;20081;-75
2024/01/27 13:11:56;;;;;;;13.87;4.70;;;;;;;;;;5105941;28;20295;-75
2024/01/27 13:14:22;;;;;;;13.77;5.30;;;;;;;;;;5107553;28;20293;-75
2024/01/27 13:16:47;;;;;;;17.10;5.18;;;;;;;;;;5102326;28;20270;-75
2024/01/27 13:19:13;;;;;;;13.05;5.30;;;;;;;;;;5108998;28;20016;-75
2024/01/27 13:21:39;;;;;;;14.05;4.90;;;;;;;;;;5101886;28;20024;-75
2024/01/27 13:24:07;;;;;;;15.43;5.20;;;;;;;;;;5103887;28;20095;-75
2024/01/27 13:26:32;;;;;;;15.02;5.13;;;;;;;;;;5104551;28;20024;-75
2024/01/27 13:28:57;;;;;;;13.43;4.95;;;;;;;;;;5102215;28;20367;-74
2024/01/27 13:31:22;;;;;;;13.53;5.07;;;;;;;;;;5106982;28;20386;-75
2024/01/27 13:33:48;;;;;;;17.80;5.33;;;;;;;;;;5100452;28;20073;-75
2024/01/27 13:36:13;;;;;;;18.37;4.87;;;;;;;;;;5102322;28;20321;-75
2024/01/27 13:38:38;;;;;;;18.37;4.80;;;;;;;;;;5106948;28;20761;-75
2024/01/27 13:41:03;;;;;;;15.63;4.83;;;;;;;;;;5100688;28;20287;-75
2024/01/27 13:43:29;;;;;;;14.52;4.70;;;;;;;;;;5108894;28;20323;-75
2024/01/27 13:45:54;;;;;;;13.18;4.47;;;;;;;;;;5101106;28;20020;-75
2024/01/27 13:48:20;;;;;;;10.00;4.18;;;;;;;;;;5108370;28;20417;-74
2024/01/27 13:50:45;;;;;;;10.55;4.15;;;;;;;;;;5101189;28;20024;-75
2024/01/27 13:53:10;;;;;;;10.83;4.33;;;;;;;;;;5108071;28;20024;-74
2024/01/27 13:55:36;;;;;;;16.13;3.90;;;;;;;;;;5101585;28;20421;-74
2024/01/27 13:58:01;;;;;;;14.13;4.55;;;;;;;;;;5106121;28;20012;-74
2024/01/27 14:00:27;;;;;;;10.95;4.13;;;;;;;;;;5103804;28;20069;-75
2024/01/27 14:02:52;;;;;;;13.52;4.43;;;;;;;;;;5102919;28;20047;-74
2024/01/27 14:05:17;;;;;;;12.50;4.67;;;;;;;;;;5104526;28;20042;-75
2024/01/27 14:07:42;;;;;;;17.80;4.60;;;;;;;;;;5103303;28;20020;-74
2024/01/27 14:10:08;;;;;;;14.45;4.40;;;;;;;;;;5103395;28;20019;-74
2024/01/27 14:12:33;;;;;;;15.73;4.20;;;;;;;;;;5106022;28;20030;-75